Time;durP1;ratioP1;P1;durP2;ratioP2;P2;SDS_P1;SDS_P2;PMS_P1;PMS_P2;Temp;Humidity;BMP_temperature;BMP_pressure;BME280_temperature;BME280_humidity;BME280_pressure;Samples;Min_cycle;Max_cycle;Signal;HPM_P1;HPM_P2
2023/03/04 00:02:04;;;;;;;10.75;2.67;;;;;;;;;;5074316;28;20533;-74
2023/03/04 00:04:30;;;;;;;8.82;3.03;;;;;;;;;;5056179;28;20052;-74
2023/03/04 00:06:56;;;;;;;8.73;3.00;;;;;;;;;;5074577;28;20026;-74
2023/03/04 00:09:22;;;;;;;10.65;3.00;;;;;;;;;;5074519;28;20031;-74
2023/03/04 00:11:48;;;;;;;9.40;3.33;;;;;;;;;;5074062;28;20126;-74
2023/03/04 00:14:14;;;;;;;6.07;2.70;;;;;;;;;;5072938;28;20039;-74
2023/03/04 00:16:41;;;;;;;10.00;2.60;;;;;;;;;;5055749;28;20097;-74
2023/03/04 00:19:07;;;;;;;8.70;2.45;;;;;;;;;;5074340;28;20514;-74
2023/03/04 00:21:33;;;;;;;9.32;2.60;;;;;;;;;;5074603;28;20028;-74
2023/03/04 00:23:59;;;;;;;12.05;3.00;;;;;;;;;;5074649;28;20427;-74
2023/03/04 00:26:25;;;;;;;8.32;3.28;;;;;;;;;;5074410;28;20027;-74
2023/03/04 00:28:51;;;;;;;12.57;2.88;;;;;;;;;;5072569;28;20107;-74
2023/03/04 00:31:17;;;;;;;10.52;2.75;;;;;;;;;;5037712;28;20111;-74
2023/03/04 00:33:44;;;;;;;10.35;2.67;;;;;;;;;;5054365;28;20025;-74
2023/03/04 00:36:10;;;;;;;9.57;3.33;;;;;;;;;;5071861;28;20339;-74
2023/03/04 00:38:36;;;;;;;7.15;2.70;;;;;;;;;;5053067;28;20041;-74
2023/03/04 00:41:03;;;;;;;9.05;2.72;;;;;;;;;;5035348;28;20115;-74
2023/03/04 00:43:30;;;;;;;7.93;2.63;;;;;;;;;;5041900;28;20020;-74
2023/03/04 00:45:56;;;;;;;5.97;2.85;;;;;;;;;;5044183;28;20044;-74
2023/03/04 00:48:22;;;;;;;7.93;2.72;;;;;;;;;;5068349;28;20025;-74
2023/03/04 00:50:50;;;;;;;8.43;3.25;;;;;;;;;;5071857;28;20063;-74
2023/03/04 00:53:17;;;;;;;12.15;2.67;;;;;;;;;;5041399;28;20536;-74
2023/03/04 00:55:43;;;;;;;10.57;3.13;;;;;;;;;;5049068;28;20064;-74
2023/03/04 00:58:09;;;;;;;9.50;2.95;;;;;;;;;;5054758;28;20013;-74
2023/03/04 01:00:35;;;;;;;7.57;2.97;;;;;;;;;;5055799;28;20079;-74
2023/03/04 01:03:01;;;;;;;10.40;3.10;;;;;;;;;;5051350;28;20078;-74
2023/03/04 01:05:27;;;;;;;17.00;3.55;;;;;;;;;;5050040;28;20116;-74
2023/03/04 01:07:53;;;;;;;6.80;3.03;;;;;;;;;;5038585;28;20033;-74
2023/03/04 01:10:19;;;;;;;6.90;2.90;;;;;;;;;;5049458;28;20029;-74
2023/03/04 01:12:46;;;;;;;8.00;2.50;;;;;;;;;;5068976;28;20060;-74
2023/03/04 01:15:12;;;;;;;6.30;2.10;;;;;;;;;;5038660;28;20025;-74
2023/03/04 01:17:39;;;;;;;9.80;2.58;;;;;;;;;;5048056;28;20075;-74
2023/03/04 01:20:05;;;;;;;9.88;2.50;;;;;;;;;;5039702;28;20499;-74
2023/03/04 01:22:32;;;;;;;15.65;2.70;;;;;;;;;;5033568;28;20119;-74
2023/03/04 01:24:58;;;;;;;10.68;2.33;;;;;;;;;;5038399;28;20029;-74
2023/03/04 01:27:25;;;;;;;6.38;2.70;;;;;;;;;;5060759;28;20078;-74
2023/03/04 01:29:51;;;;;;;5.38;2.08;;;;;;;;;;5070099;28;20050;-74
2023/03/04 01:32:17;;;;;;;10.68;2.60;;;;;;;;;;5053940;28;20040;-74
2023/03/04 01:34:43;;;;;;;4.47;2.05;;;;;;;;;;5057310;28;20036;-74
2023/03/04 01:37:09;;;;;;;5.00;2.22;;;;;;;;;;5051707;28;20041;-74
2023/03/04 01:39:36;;;;;;;11.32;3.00;;;;;;;;;;5060074;28;20021;-74
2023/03/04 01:42:02;;;;;;;9.57;1.85;;;;;;;;;;5044595;28;20025;-74
2023/03/04 01:44:28;;;;;;;10.90;2.00;;;;;;;;;;5065261;28;20085;-74
2023/03/04 01:46:55;;;;;;;8.85;1.58;;;;;;;;;;5051654;28;20028;-74
2023/03/04 01:49:24;;;;;;;10.65;1.98;;;;;;;;;;5039848;28;20499;-74
2023/03/04 01:51:52;;;;;;;8.68;1.90;;;;;;;;;;5046546;28;20040;-74
2023/03/04 01:54:18;;;;;;;8.18;1.60;;;;;;;;;;5040425;28;20032;-74
2023/03/04 01:56:46;;;;;;;9.05;1.90;;;;;;;;;;5045086;28;20381;-74
2023/03/04 01:59:16;;;;;;;7.07;1.90;;;;;;;;;;5037895;28;20031;-74
2023/03/04 02:01:50;;;;;;;7.93;1.88;;;;;;;;;;5065609;28;20070;-74
2023/03/04 02:04:17;;;;;;;12.60;2.28;;;;;;;;;;5061938;28;20031;-74
2023/03/04 02:06:44;;;;;;;3.58;1.90;;;;;;;;;;5037621;28;20404;-74
2023/03/04 02:09:10;;;;;;;5.38;2.25;;;;;;;;;;5059537;28;20036;-74
2023/03/04 02:11:38;;;;;;;5.03;1.60;;;;;;;;;;5045491;28;20519;-74
2023/03/04 02:14:04;;;;;;;3.33;1.25;;;;;;;;;;5058066;28;20025;-74
2023/03/04 02:16:31;;;;;;;7.20;1.77;;;;;;;;;;5032996;28;20078;-74
2023/03/04 02:18:57;;;;;;;9.10;1.80;;;;;;;;;;5048755;28;20021;-74
2023/03/04 02:21:27;;;;;;;4.78;1.58;;;;;;;;;;5036459;28;20025;-74
2023/03/04 02:23:57;;;;;;;7.47;1.77;;;;;;;;;;5044697;28;20040;-74
2023/03/04 02:26:26;;;;;;;9.98;2.53;;;;;;;;;;5043125;28;20029;-74
2023/03/04 02:28:54;;;;;;;8.80;1.63;;;;;;;;;;5056153;28;20582;-74
2023/03/04 02:31:22;;;;;;;8.68;1.60;;;;;;;;;;5051716;28;20021;-74
2023/03/04 02:33:48;;;;;;;4.93;1.42;;;;;;;;;;5047266;28;20039;-74
2023/03/04 02:36:14;;;;;;;5.43;1.80;;;;;;;;;;5028353;28;20082;-74
2023/03/04 02:38:41;;;;;;;5.88;1.40;;;;;;;;;;5073727;28;20059;-74
2023/03/04 02:41:09;;;;;;;3.78;1.00;;;;;;;;;;5070242;28;20111;-74
2023/03/04 02:43:35;;;;;;;5.65;1.40;;;;;;;;;;5054144;28;20056;-74
2023/03/04 02:46:01;;;;;;;8.73;2.20;;;;;;;;;;5080117;28;20024;-74
2023/03/04 02:48:27;;;;;;;8.32;1.42;;;;;;;;;;5080075;28;20082;-74
2023/03/04 02:50:54;;;;;;;6.15;1.40;;;;;;;;;;5054281;28;20040;-74
2023/03/04 02:53:20;;;;;;;4.15;1.40;;;;;;;;;;5070217;28;20040;-74
2023/03/04 02:55:47;;;;;;;9.48;2.42;;;;;;;;;;5043595;28;20133;-74
2023/03/04 02:58:14;;;;;;;6.65;1.50;;;;;;;;;;5063630;28;20032;-74
2023/03/04 03:00:40;;;;;;;6.07;1.55;;;;;;;;;;5067723;28;20047;-74
2023/03/04 03:03:07;;;;;;;9.18;1.50;;;;;;;;;;5056243;28;20108;-74
2023/03/04 03:05:35;;;;;;;5.57;1.70;;;;;;;;;;5076466;28;20028;-74
2023/03/04 03:08:02;;;;;;;3.38;1.20;;;;;;;;;;5065498;28;20020;-74
2023/03/04 03:10:28;;;;;;;5.53;1.60;;;;;;;;;;5065289;28;20388;-74
2023/03/04 03:12:55;;;;;;;8.43;1.85;;;;;;;;;;5058675;28;20031;-74
2023/03/04 03:15:21;;;;;;;6.40;1.70;;;;;;;;;;5062680;28;20041;-74
2023/03/04 03:17:48;;;;;;;5.45;1.52;;;;;;;;;;5043414;28;20048;-74
2023/03/04 03:20:15;;;;;;;4.57;1.70;;;;;;;;;;5082125;28;20029;-74
2023/03/04 03:22:41;;;;;;;7.68;1.83;;;;;;;;;;5069571;28;20032;-74
2023/03/04 03:25:09;;;;;;;5.13;1.63;;;;;;;;;;5060604;28;20036;-74
2023/03/04 03:27:35;;;;;;;3.47;1.40;;;;;;;;;;5062057;28;20024;-74
2023/03/04 03:30:01;;;;;;;7.20;1.45;;;;;;;;;;5058141;28;20464;-74
2023/03/04 03:32:28;;;;;;;6.32;1.83;;;;;;;;;;5060318;28;20123;-74
2023/03/04 03:34:54;;;;;;;4.13;2.65;;;;;;;;;;5057807;28;20033;-74
2023/03/04 03:37:20;;;;;;;9.48;1.85;;;;;;;;;;5054028;28;20036;-74
2023/03/04 03:39:46;;;;;;;6.03;1.80;;;;;;;;;;5055415;28;20489;-74
2023/03/04 03:42:12;;;;;;;8.48;1.58;;;;;;;;;;5063219;28;20167;-74
2023/03/04 03:44:38;;;;;;;5.75;1.65;;;;;;;;;;5062315;28;20153;-74
2023/03/04 03:47:04;;;;;;;6.75;1.63;;;;;;;;;;5055942;28;20017;-74
2023/03/04 03:49:30;;;;;;;4.93;1.40;;;;;;;;;;5053739;28;20068;-74
2023/03/04 03:51:57;;;;;;;4.70;1.67;;;;;;;;;;5067819;28;20054;-74
2023/03/04 03:54:23;;;;;;;3.80;1.50;;;;;;;;;;5068182;28;20085;-74
2023/03/04 03:56:49;;;;;;;4.72;1.40;;;;;;;;;;5075422;28;20085;-74
2023/03/04 03:59:15;;;;;;;7.63;2.13;;;;;;;;;;5075302;28;20437;-74
2023/03/04 04:01:41;;;;;;;3.25;1.80;;;;;;;;;;5075246;28;20546;-74
2023/03/04 04:04:07;;;;;;;4.65;1.80;;;;;;;;;;5075397;28;20028;-74
2023/03/04 04:06:33;;;;;;;5.18;1.77;;;;;;;;;;5074775;28;20029;-74
2023/03/04 04:08:59;;;;;;;3.90;1.50;;;;;;;;;;5074380;28;20091;-74
2023/03/04 04:11:26;;;;;;;6.20;1.58;;;;;;;;;;5074848;28;20070;-74
2023/03/04 04:13:53;;;;;;;2.85;1.83;;;;;;;;;;5075293;28;20441;-74
2023/03/04 04:16:19;;;;;;;12.60;1.90;;;;;;;;;;5074219;28;20040;-74
2023/03/04 04:18:45;;;;;;;6.45;1.70;;;;;;;;;;5072547;28;20423;-75
2023/03/04 04:21:11;;;;;;;6.97;1.90;;;;;;;;;;5073281;28;20025;-75
2023/03/04 04:23:37;;;;;;;2.88;1.90;;;;;;;;;;5071864;28;20033;-75
2023/03/04 04:26:03;;;;;;;5.63;1.70;;;;;;;;;;5049296;28;20115;-75
2023/03/04 04:28:30;;;;;;;4.78;2.08;;;;;;;;;;5054940;28;20032;-75
2023/03/04 04:30:56;;;;;;;5.03;1.63;;;;;;;;;;5062660;28;20028;-75
2023/03/04 04:33:22;;;;;;;3.92;1.85;;;;;;;;;;5056008;28;20466;-75
2023/03/04 04:35:48;;;;;;;3.75;1.70;;;;;;;;;;5056178;28;20021;-75
2023/03/04 04:38:14;;;;;;;7.53;2.22;;;;;;;;;;5054507;28;20508;-75
2023/03/04 04:40:41;;;;;;;4.53;1.70;;;;;;;;;;5074885;28;20111;-76
2023/03/04 04:43:07;;;;;;;5.00;1.88;;;;;;;;;;5074870;28;20024;-76
2023/03/04 04:45:34;;;;;;;4.53;1.83;;;;;;;;;;5073276;28;20029;-76
2023/03/04 04:48:00;;;;;;;5.55;1.40;;;;;;;;;;5074588;28;20028;-76
2023/03/04 04:50:27;;;;;;;1.90;1.38;;;;;;;;;;5073936;28;20016;-76
2023/03/04 04:52:53;;;;;;;6.90;1.70;;;;;;;;;;5074430;28;20028;-75
2023/03/04 04:55:19;;;;;;;4.40;1.80;;;;;;;;;;5074299;28;20031;-75
2023/03/04 04:57:45;;;;;;;2.30;1.60;;;;;;;;;;5074147;28;20024;-75
2023/03/04 05:00:11;;;;;;;5.90;1.55;;;;;;;;;;5074050;28;20063;-75
2023/03/04 05:02:38;;;;;;;7.63;1.70;;;;;;;;;;5074077;28;20032;-75
2023/03/04 05:05:05;;;;;;;5.93;1.90;;;;;;;;;;5073031;28;20480;-76
2023/03/04 05:07:33;;;;;;;9.30;2.13;;;;;;;;;;5074394;28;20037;-76
2023/03/04 05:09:59;;;;;;;5.68;2.90;;;;;;;;;;5074815;28;20037;-75
2023/03/04 05:12:25;;;;;;;4.82;1.92;;;;;;;;;;5055758;28;20047;-75
2023/03/04 05:14:51;;;;;;;2.83;1.90;;;;;;;;;;5071103;28;20027;-75
2023/03/04 05:17:17;;;;;;;9.00;2.10;;;;;;;;;;5072882;28;20024;-74
2023/03/04 05:19:43;;;;;;;10.15;2.20;;;;;;;;;;5072775;28;20008;-75
2023/03/04 05:22:09;;;;;;;5.35;2.33;;;;;;;;;;5073984;28;20028;-75
2023/03/04 05:24:35;;;;;;;4.20;2.70;;;;;;;;;;5073642;28;20036;-75
2023/03/04 05:27:02;;;;;;;7.25;2.58;;;;;;;;;;5061609;28;20035;-75
2023/03/04 05:29:28;;;;;;;9.20;2.80;;;;;;;;;;5073559;28;20032;-75
2023/03/04 05:31:54;;;;;;;3.60;2.25;;;;;;;;;;5072588;28;20032;-75
2023/03/04 05:34:20;;;;;;;6.32;2.50;;;;;;;;;;5065244;28;20028;-75
2023/03/04 05:36:46;;;;;;;6.75;2.15;;;;;;;;;;5065730;28;20063;-76
2023/03/04 05:39:12;;;;;;;5.30;1.98;;;;;;;;;;5080372;28;20028;-76
2023/03/04 05:41:38;;;;;;;5.80;2.58;;;;;;;;;;5078901;28;20028;-76
2023/03/04 05:44:05;;;;;;;5.20;2.33;;;;;;;;;;5091614;28;20395;-76
2023/03/04 05:46:31;;;;;;;6.85;2.75;;;;;;;;;;5091476;28;20103;-76
2023/03/04 05:48:57;;;;;;;3.47;2.40;;;;;;;;;;5081817;28;20016;-76
2023/03/04 05:51:24;;;;;;;7.22;2.97;;;;;;;;;;5091173;28;20107;-76
2023/03/04 05:53:50;;;;;;;3.67;2.40;;;;;;;;;;5090204;28;20024;-76
2023/03/04 05:56:17;;;;;;;4.00;2.78;;;;;;;;;;5090299;28;20028;-76
2023/03/04 05:58:44;;;;;;;6.30;3.35;;;;;;;;;;5089229;28;20043;-75
2023/03/04 06:01:10;;;;;;;5.90;2.53;;;;;;;;;;5088955;28;20052;-75
2023/03/04 06:03:36;;;;;;;10.82;3.08;;;;;;;;;;5090328;28;20528;-75
2023/03/04 06:06:03;;;;;;;7.57;3.20;;;;;;;;;;5072247;28;20076;-75
2023/03/04 06:08:29;;;;;;;7.15;3.30;;;;;;;;;;5089259;28;20396;-75
2023/03/04 06:10:56;;;;;;;3.90;2.65;;;;;;;;;;5087882;28;20035;-75
2023/03/04 06:13:22;;;;;;;5.32;2.63;;;;;;;;;;5071233;28;20487;-75
2023/03/04 06:15:53;;;;;;;6.88;3.22;;;;;;;;;;5089097;28;20036;-75
2023/03/04 06:18:19;;;;;;;4.95;2.50;;;;;;;;;;5069500;28;20043;-76
2023/03/04 06:20:45;;;;;;;4.80;2.65;;;;;;;;;;5088689;28;20035;-76
2023/03/04 06:23:11;;;;;;;6.13;2.95;;;;;;;;;;5089197;28;20114;-76
2023/03/04 06:25:37;;;;;;;5.47;2.60;;;;;;;;;;5089289;28;20058;-76
2023/03/04 06:28:04;;;;;;;4.88;2.70;;;;;;;;;;5090131;28;20050;-76
2023/03/04 06:30:30;;;;;;;9.55;5.30;;;;;;;;;;5087944;28;20031;-77
2023/03/04 06:32:56;;;;;;;4.45;3.10;;;;;;;;;;5063906;28;20055;-70
2023/03/04 06:35:22;;;;;;;6.05;2.55;;;;;;;;;;5085319;28;20548;-76
2023/03/04 06:37:48;;;;;;;5.50;2.90;;;;;;;;;;5080996;28;20091;-74
2023/03/04 06:40:15;;;;;;;4.15;2.90;;;;;;;;;;5054798;28;20047;-74
2023/03/04 06:42:42;;;;;;;8.93;3.47;;;;;;;;;;5045305;28;20074;-74
2023/03/04 06:45:08;;;;;;;10.88;3.30;;;;;;;;;;5070479;28;20041;-74
2023/03/04 06:47:35;;;;;;;5.85;2.97;;;;;;;;;;5064983;28;20361;-74
2023/03/04 06:50:02;;;;;;;8.25;3.60;;;;;;;;;;5065313;28;20052;-73
2023/03/04 06:52:28;;;;;;;5.20;3.47;;;;;;;;;;5071213;28;20028;-73
2023/03/04 06:54:54;;;;;;;8.38;3.38;;;;;;;;;;5053677;28;20028;-73
2023/03/04 06:57:20;;;;;;;11.40;3.92;;;;;;;;;;5063530;28;20441;-74
2023/03/04 06:59:46;;;;;;;8.32;2.83;;;;;;;;;;5048053;28;20020;-74
2023/03/04 07:02:13;;;;;;;4.22;2.70;;;;;;;;;;5044922;28;20031;-75
2023/03/04 07:04:39;;;;;;;8.05;3.08;;;;;;;;;;5027325;28;20033;-75
2023/03/04 07:07:05;;;;;;;9.88;3.78;;;;;;;;;;5062603;28;20029;-75
2023/03/04 07:09:31;;;;;;;8.32;3.20;;;;;;;;;;5039198;28;20025;-75
2023/03/04 07:11:58;;;;;;;5.10;3.28;;;;;;;;;;5058586;28;20020;-75
2023/03/04 07:14:24;;;;;;;6.07;3.45;;;;;;;;;;5066983;28;20062;-75
2023/03/04 07:16:50;;;;;;;7.65;3.58;;;;;;;;;;5069474;28;20021;-75
2023/03/04 07:19:16;;;;;;;6.78;3.22;;;;;;;;;;5071782;28;20448;-75
2023/03/04 07:21:43;;;;;;;10.70;3.17;;;;;;;;;;5070121;28;20052;-74
2023/03/04 07:24:09;;;;;;;8.65;3.28;;;;;;;;;;5069935;28;20392;-74
2023/03/04 07:26:36;;;;;;;9.75;3.95;;;;;;;;;;5051627;28;20037;-74
2023/03/04 07:29:03;;;;;;;7.35;4.00;;;;;;;;;;5070275;28;20032;-74
2023/03/04 07:31:33;;;;;;;11.40;4.00;;;;;;;;;;5070607;28;20017;-74
2023/03/04 07:34:00;;;;;;;8.25;3.75;;;;;;;;;;5050724;28;20032;-74
2023/03/04 07:36:26;;;;;;;9.30;4.13;;;;;;;;;;5068292;28;20032;-74
2023/03/04 07:38:56;;;;;;;6.82;3.72;;;;;;;;;;5070920;28;20407;-74
2023/03/04 07:41:24;;;;;;;14.55;4.53;;;;;;;;;;5091432;28;20124;-74
2023/03/04 07:43:50;;;;;;;11.75;6.70;;;;;;;;;;5090949;28;20028;-74
2023/03/04 07:46:16;;;;;;;8.77;4.53;;;;;;;;;;5089316;28;20057;-74
2023/03/04 07:48:43;;;;;;;14.52;4.30;;;;;;;;;;5079914;28;20028;-74
2023/03/04 07:51:11;;;;;;;10.20;5.00;;;;;;;;;;5077535;28;20035;-74
2023/03/04 07:53:38;;;;;;;7.28;4.35;;;;;;;;;;5074099;28;20029;-74
2023/03/04 07:56:05;;;;;;;10.73;4.95;;;;;;;;;;5088606;28;20039;-74
2023/03/04 07:58:31;;;;;;;8.85;5.47;;;;;;;;;;5090867;28;20032;-74
2023/03/04 08:00:58;;;;;;;12.13;5.20;;;;;;;;;;5091637;28;20020;-75
2023/03/04 08:03:24;;;;;;;9.95;4.60;;;;;;;;;;5089365;28;20392;-74
2023/03/04 08:05:50;;;;;;;14.90;5.68;;;;;;;;;;5089404;28;20016;-74
2023/03/04 08:08:16;;;;;;;9.02;5.47;;;;;;;;;;5092822;28;20089;-75
2023/03/04 08:10:43;;;;;;;8.80;5.00;;;;;;;;;;5092270;28;20024;-75
2023/03/04 08:13:09;;;;;;;17.20;7.28;;;;;;;;;;5092998;28;20595;-75
2023/03/04 08:15:39;;;;;;;12.32;6.80;;;;;;;;;;5091880;28;20059;-75
2023/03/04 08:18:05;;;;;;;17.08;8.43;;;;;;;;;;5094488;28;20127;-75
2023/03/04 08:20:31;;;;;;;18.45;8.80;;;;;;;;;;5076337;28;20024;-75
2023/03/04 08:22:57;;;;;;;16.65;9.00;;;;;;;;;;5094266;28;20032;-75
2023/03/04 08:25:23;;;;;;;18.23;9.40;;;;;;;;;;5093129;28;20020;-75
2023/03/04 08:27:49;;;;;;;18.23;9.52;;;;;;;;;;5094106;28;20041;-75
2023/03/04 08:30:16;;;;;;;20.80;9.48;;;;;;;;;;5075968;28;20066;-75
2023/03/04 08:32:42;;;;;;;20.42;9.98;;;;;;;;;;5092455;28;20031;-75
2023/03/04 08:35:08;;;;;;;24.15;10.20;;;;;;;;;;5092728;28;20469;-75
2023/03/04 08:37:34;;;;;;;18.17;10.32;;;;;;;;;;5094523;28;20040;-75
2023/03/04 08:40:00;;;;;;;26.00;11.40;;;;;;;;;;5094338;28;20032;-75
2023/03/04 08:42:26;;;;;;;20.23;10.75;;;;;;;;;;5092252;28;20024;-75
2023/03/04 08:44:52;;;;;;;24.48;11.52;;;;;;;;;;5093700;28;20027;-75
2023/03/04 08:47:18;;;;;;;26.90;11.27;;;;;;;;;;5094545;28;20057;-75
2023/03/04 08:49:44;;;;;;;18.95;11.20;;;;;;;;;;5094541;28;20027;-75
2023/03/04 08:52:11;;;;;;;29.40;13.40;;;;;;;;;;5076354;28;20040;-75
2023/03/04 08:54:37;;;;;;;25.35;11.32;;;;;;;;;;5094467;28;20049;-75
2023/03/04 08:57:03;;;;;;;23.20;12.35;;;;;;;;;;5093672;28;20020;-74
2023/03/04 08:59:29;;;;;;;24.02;12.23;;;;;;;;;;5094329;28;20325;-74
2023/03/04 09:01:55;;;;;;;25.60;12.30;;;;;;;;;;5075568;28;20027;-77
2023/03/04 09:04:21;;;;;;;24.38;11.93;;;;;;;;;;5067376;28;20536;-76
2023/03/04 09:06:47;;;;;;;21.95;12.68;;;;;;;;;;5085283;28;20023;-75
2023/03/04 09:09:13;;;;;;;28.45;14.10;;;;;;;;;;5090740;28;20036;-76
2023/03/04 09:11:40;;;;;;;25.45;12.95;;;;;;;;;;5094141;28;20024;-76
2023/03/04 09:14:06;;;;;;;28.30;12.00;;;;;;;;;;5093515;28;20499;-76
2023/03/04 09:16:32;;;;;;;23.33;12.77;;;;;;;;;;5075317;28;20031;-75
2023/03/04 09:18:59;;;;;;;23.80;13.07;;;;;;;;;;5067894;28;20074;-75
2023/03/04 09:21:25;;;;;;;25.90;13.52;;;;;;;;;;5081090;28;20052;-75
2023/03/04 09:23:51;;;;;;;22.75;13.23;;;;;;;;;;5063349;28;20036;-75
2023/03/04 09:26:20;;;;;;;31.88;13.48;;;;;;;;;;5092464;28;20034;-75
2023/03/04 09:28:49;;;;;;;23.92;13.20;;;;;;;;;;5086874;28;20032;-75
2023/03/04 09:31:15;;;;;;;25.08;13.18;;;;;;;;;;5087596;28;20028;-74
2023/03/04 09:33:42;;;;;;;28.52;13.02;;;;;;;;;;5082429;28;20058;-74
2023/03/04 09:36:11;;;;;;;29.15;13.85;;;;;;;;;;5088197;28;20039;-74
2023/03/04 09:38:38;;;;;;;24.60;13.52;;;;;;;;;;5093450;28;20119;-74
2023/03/04 09:41:06;;;;;;;26.50;14.23;;;;;;;;;;5090838;28;20028;-74
2023/03/04 09:43:33;;;;;;;30.15;14.13;;;;;;;;;;5083476;28;20027;-74
2023/03/04 09:46:01;;;;;;;29.48;13.50;;;;;;;;;;5082044;28;20024;-74
2023/03/04 09:48:28;;;;;;;26.67;14.38;;;;;;;;;;5076112;28;20402;-74
2023/03/04 09:51:02;;;;;;;28.60;13.25;;;;;;;;;;5077290;28;20063;-74
2023/03/04 09:53:46;;;;;;;32.83;15.43;;;;;;;;;;5078935;28;20094;-74
2023/03/04 09:56:14;;;;;;;26.90;13.02;;;;;;;;;;5068951;28;20119;-74
2023/03/04 09:58:56;;;;;;;30.13;14.20;;;;;;;;;;5057358;28;20021;-74
2023/03/04 10:01:25;;;;;;;24.00;14.05;;;;;;;;;;5076064;28;20024;-74
2023/03/04 10:03:59;;;;;;;26.42;14.27;;;;;;;;;;5073303;28;20103;-74
2023/03/04 10:06:25;;;;;;;28.30;14.75;;;;;;;;;;5075556;28;20119;-74
2023/03/04 10:09:03;;;;;;;26.95;13.68;;;;;;;;;;5056572;28;20029;-74
2023/03/04 10:11:29;;;;;;;25.45;13.63;;;;;;;;;;5079922;28;20077;-74
2023/03/04 10:14:11;;;;;;;24.20;13.85;;;;;;;;;;5090272;28;20058;-74
2023/03/04 10:16:57;;;;;;;30.50;14.43;;;;;;;;;;5085529;28;20044;-74
2023/03/04 10:19:33;;;;;;;27.98;14.02;;;;;;;;;;5058250;28;20522;-74
2023/03/04 10:22:00;;;;;;;25.27;12.63;;;;;;;;;;5075078;28;20469;-74
2023/03/04 10:24:27;;;;;;;36.80;15.52;;;;;;;;;;5086451;28;20099;-74
2023/03/04 10:26:55;;;;;;;28.65;14.15;;;;;;;;;;5084879;28;20019;-74
2023/03/04 10:29:23;;;;;;;25.17;13.10;;;;;;;;;;5071497;28;20086;-74
2023/03/04 10:31:49;;;;;;;23.52;13.63;;;;;;;;;;5079418;28;20028;-74
2023/03/04 10:34:16;;;;;;;22.58;13.20;;;;;;;;;;5054314;28;20408;-74
2023/03/04 10:36:45;;;;;;;23.92;12.40;;;;;;;;;;5059052;28;20048;-74
2023/03/04 10:39:13;;;;;;;26.35;12.98;;;;;;;;;;5055937;28;20062;-74
2023/03/04 10:41:43;;;;;;;26.90;13.45;;;;;;;;;;5055577;28;20391;-74
2023/03/04 11:41:07;;;;;;;;;;;;;;;;;;5061513;28;20539;-68
2023/03/04 11:43:37;;;;;;;12.57;7.80;;;;;;;;;;5070819;28;19999;-69
2023/03/04 11:46:10;;;;;;;16.88;8.23;;;;;;;;;;5072477;28;20021;-68
2023/03/04 11:48:45;;;;;;;13.00;6.47;;;;;;;;;;5071511;28;20498;-66
2023/03/04 11:51:24;;;;;;;15.15;6.72;;;;;;;;;;5072677;28;20037;-66
2023/03/04 11:53:53;;;;;;;7.38;4.05;;;;;;;;;;5074162;28;20107;-66
2023/03/04 11:56:36;;;;;;;8.70;3.03;;;;;;;;;;5071464;28;20053;-66
2023/03/04 11:59:29;;;;;;;6.10;1.85;;;;;;;;;;5070094;28;20442;-66
2023/03/04 12:02:12;;;;;;;4.78;1.92;;;;;;;;;;5069484;28;20064;-66
2023/03/04 12:04:44;;;;;;;11.73;1.45;;;;;;;;;;5070949;28;20028;-66
2023/03/04 12:07:16;;;;;;;8.25;2.47;;;;;;;;;;5069724;28;20461;-66
2023/03/04 12:09:52;;;;;;;4.80;1.52;;;;;;;;;;5072534;28;20437;-66
2023/03/04 12:12:25;;;;;;;6.03;2.20;;;;;;;;;;5069299;28;20024;-66
2023/03/04 12:15:00;;;;;;;7.20;1.90;;;;;;;;;;5069931;28;20513;-66
2023/03/04 12:17:42;;;;;;;8.60;1.85;;;;;;;;;;5071052;28;20407;-66
2023/03/04 12:20:27;;;;;;;4.22;1.58;;;;;;;;;;5070379;28;20071;-66
2023/03/04 12:23:11;;;;;;;7.93;2.00;;;;;;;;;;5070587;28;20027;-65
2023/03/04 12:25:48;;;;;;;9.43;2.80;;;;;;;;;;5070725;28;20035;-66
2023/03/04 12:28:33;;;;;;;12.57;3.15;;;;;;;;;;5071707;28;20038;-66
2023/03/04 12:31:05;;;;;;;15.88;3.17;;;;;;;;;;5065297;28;20051;-66
2023/03/04 12:33:31;;;;;;;13.68;2.75;;;;;;;;;;5072744;28;20028;-66
2023/03/04 12:36:06;;;;;;;11.25;2.97;;;;;;;;;;5070641;28;20078;-66
2023/03/04 12:38:45;;;;;;;7.95;2.20;;;;;;;;;;5071499;28;20025;-66
2023/03/04 12:41:29;;;;;;;7.97;1.70;;;;;;;;;;5069027;28;20045;-66
2023/03/04 12:44:04;;;;;;;11.43;2.50;;;;;;;;;;5070322;28;20025;-66
2023/03/04 12:46:36;;;;;;;10.88;2.95;;;;;;;;;;5052711;28;20040;-66
2023/03/04 12:49:02;;;;;;;10.13;3.90;;;;;;;;;;5070399;28;20487;-67
2023/03/04 12:51:45;;;;;;;11.48;2.55;;;;;;;;;;5069566;28;21430;-67
2023/03/04 12:54:11;;;;;;;;;;;;;;;;;;5071202;28;20032;-67
2023/03/04 12:56:38;;;;;;;8.73;2.72;;;;;;;;;;5073145;28;19913;-67
2023/03/04 12:59:05;;;;;;;12.43;3.15;;;;;;;;;;5072709;28;20051;-67
2023/03/04 13:01:57;;;;;;;8.98;2.20;;;;;;;;;;5067070;28;20025;-67
2023/03/04 13:04:24;;;;;;;5.95;1.42;;;;;;;;;;5068818;28;20090;-66
2023/03/04 13:06:53;;;;;;;13.93;1.90;;;;;;;;;;5055011;28;20091;-66
2023/03/04 13:09:31;;;;;;;9.73;2.45;;;;;;;;;;5072136;28;20032;-66
2023/03/04 13:12:17;;;;;;;16.58;3.92;;;;;;;;;;5069947;28;20020;-66
2023/03/04 13:15:02;;;;;;;13.70;2.60;;;;;;;;;;5070771;28;20440;-65
2023/03/04 13:17:38;;;;;;;7.90;1.90;;;;;;;;;;5069853;28;20021;-66
2023/03/04 13:20:16;;;;;;;10.23;2.90;;;;;;;;;;5051611;28;20025;-66
2023/03/04 13:22:50;;;;;;;8.05;2.22;;;;;;;;;;5069727;28;20495;-66
2023/03/04 13:25:30;;;;;;;10.95;2.25;;;;;;;;;;5070545;28;20537;-66
2023/03/04 13:28:01;;;;;;;8.05;1.98;;;;;;;;;;5069648;28;20029;-66
2023/03/04 13:30:31;;;;;;;7.50;2.00;;;;;;;;;;5049819;28;20109;-66
2023/03/04 13:33:17;;;;;;;7.28;2.33;;;;;;;;;;5068931;28;20027;-65
2023/03/04 13:35:46;;;;;;;6.57;1.48;;;;;;;;;;5009571;28;20432;-66
2023/03/04 13:38:31;;;;;;;6.20;1.50;;;;;;;;;;5001598;28;20042;-65
2023/03/04 13:41:00;;;;;;;7.88;1.42;;;;;;;;;;5005516;28;20069;-65
2023/03/04 13:43:27;;;;;;;9.52;1.83;;;;;;;;;;5006908;28;20112;-69
2023/03/04 13:45:53;;;;;;;10.07;2.38;;;;;;;;;;5007911;28;20032;-68
2023/03/04 13:48:31;;;;;;;9.73;1.85;;;;;;;;;;5006118;28;20044;-66
2023/03/04 13:50:58;;;;;;;5.72;1.33;;;;;;;;;;5007206;28;20046;-66
2023/03/04 13:53:33;;;;;;;10.30;1.42;;;;;;;;;;5006374;28;20045;-65
2023/03/04 13:56:11;;;;;;;6.25;1.63;;;;;;;;;;5007323;28;20040;-66
2023/03/04 13:58:38;;;;;;;8.98;2.78;;;;;;;;;;5004201;28;20040;-66
2023/03/04 14:01:06;;;;;;;9.80;1.77;;;;;;;;;;5007743;28;20064;-66
2023/03/04 14:03:34;;;;;;;7.88;2.08;;;;;;;;;;5007154;28;20065;-67
2023/03/04 14:06:17;;;;;;;18.40;2.58;;;;;;;;;;5006191;28;20037;-66
2023/03/04 14:08:44;;;;;;;10.02;1.80;;;;;;;;;;5006601;28;20037;-66
2023/03/04 14:11:15;;;;;;;5.18;1.95;;;;;;;;;;5006285;28;20034;-66
2023/03/04 14:13:41;;;;;;;9.95;1.90;;;;;;;;;;5060598;28;20155;-66
2023/03/04 14:16:08;;;;;;;10.32;2.22;;;;;;;;;;5068086;28;20024;-67
2023/03/04 14:18:35;;;;;;;8.30;2.03;;;;;;;;;;5071017;28;20025;-66
2023/03/04 14:21:02;;;;;;;13.95;2.45;;;;;;;;;;5070442;28;20020;-66
2023/03/04 14:23:29;;;;;;;16.23;2.47;;;;;;;;;;5069802;28;20368;-65
2023/03/04 14:26:05;;;;;;;8.63;2.55;;;;;;;;;;5065979;28;20054;-69
2023/03/04 14:28:31;;;;;;;13.63;2.63;;;;;;;;;;5064324;28;20028;-66
2023/03/04 14:30:57;;;;;;;9.80;2.10;;;;;;;;;;5064539;28;20082;-66
2023/03/04 14:33:25;;;;;;;8.77;2.75;;;;;;;;;;5067322;28;20035;-66
2023/03/04 14:35:53;;;;;;;14.05;2.25;;;;;;;;;;5050006;28;20024;-66
2023/03/04 14:38:19;;;;;;;15.02;3.00;;;;;;;;;;5064194;28;20055;-66
2023/03/04 14:40:47;;;;;;;9.07;2.15;;;;;;;;;;5066307;28;20539;-66
2023/03/04 14:43:13;;;;;;;11.35;3.50;;;;;;;;;;5066945;28;20068;-66
2023/03/04 14:45:40;;;;;;;13.35;2.50;;;;;;;;;;5064207;28;20074;-66
2023/03/04 14:48:06;;;;;;;16.75;2.60;;;;;;;;;;5065153;28;20020;-66
2023/03/04 14:50:33;;;;;;;12.52;2.78;;;;;;;;;;5063501;28;20025;-67
2023/03/04 14:53:09;;;;;;;12.13;2.53;;;;;;;;;;5063012;28;20020;-66
2023/03/04 14:55:35;;;;;;;13.85;2.67;;;;;;;;;;5066659;28;20078;-66
2023/03/04 14:58:08;;;;;;;10.90;3.05;;;;;;;;;;5065311;28;20020;-66
2023/03/04 15:00:36;;;;;;;12.07;3.45;;;;;;;;;;5062998;28;20079;-66
2023/03/04 15:03:23;;;;;;;13.27;2.85;;;;;;;;;;5065587;28;20143;-66
2023/03/04 15:05:51;;;;;;;19.70;4.07;;;;;;;;;;5066988;28;20032;-66
2023/03/04 15:08:25;;;;;;;13.52;3.05;;;;;;;;;;5066042;28;20065;-66
2023/03/04 15:10:58;;;;;;;27.55;3.83;;;;;;;;;;5064604;28;20028;-66
2023/03/04 15:13:56;;;;;;;16.75;2.90;;;;;;;;;;5066378;28;20047;-66
2023/03/04 15:16:27;;;;;;;11.23;2.70;;;;;;;;;;4967384;28;20062;-66
2023/03/04 15:18:54;;;;;;;8.38;2.30;;;;;;;;;;4969941;28;20062;-66
2023/03/04 15:21:20;;;;;;;13.88;3.13;;;;;;;;;;4971729;28;20050;-66
2023/03/04 15:23:46;;;;;;;8.32;2.50;;;;;;;;;;4968442;28;20034;-66
2023/03/04 15:26:13;;;;;;;12.25;2.70;;;;;;;;;;4969111;28;20051;-66
2023/03/04 15:28:42;;;;;;;9.88;2.53;;;;;;;;;;4968626;28;20050;-66
2023/03/04 15:31:21;;;;;;;12.90;2.70;;;;;;;;;;4968550;28;20122;-66
2023/03/04 15:33:48;;;;;;;17.23;3.05;;;;;;;;;;4971766;28;20034;-66
2023/03/04 15:36:16;;;;;;;11.27;3.30;;;;;;;;;;4970933;28;20043;-66
2023/03/04 15:38:45;;;;;;;12.63;3.83;;;;;;;;;;4969754;28;20042;-66
2023/03/04 15:41:11;;;;;;;13.60;3.92;;;;;;;;;;4988730;28;20053;-66